sensor_id;sensor_type;location;lat;lon;timestamp;P1;durP1;ratioP1;P2;durP2;ratioP2
21593;SDS011;10959;51.328;7.322;2024-02-14T00:02:24;4.83;;;3.03;;
21593;SDS011;10959;51.328;7.322;2024-02-14T00:04:53;7.50;;;3.17;;
21593;SDS011;10959;51.328;7.322;2024-02-14T00:07:19;4.43;;;3.20;;
21593;SDS011;10959;51.328;7.322;2024-02-14T00:09:46;4.17;;;3.13;;
21593;SDS011;10959;51.328;7.322;2024-02-14T00:12:13;3.87;;;2.90;;
21593;SDS011;10959;51.328;7.322;2024-02-14T00:14:40;4.13;;;2.73;;
21593;SDS011;10959;51.328;7.322;2024-02-14T00:17:07;3.40;;;2.90;;
21593;SDS011;10959;51.328;7.322;2024-02-14T00:19:35;3.00;;;2.77;;
21593;SDS011;10959;51.328;7.322;2024-02-14T00:22:03;5.20;;;3.10;;
21593;SDS011;10959;51.328;7.322;2024-02-14T00:24:30;4.70;;;3.10;;
21593;SDS011;10959;51.328;7.322;2024-02-14T00:26:57;4.87;;;2.80;;
21593;SDS011;10959;51.328;7.322;2024-02-14T00:29:25;4.10;;;2.60;;
21593;SDS011;10959;51.328;7.322;2024-02-14T00:31:52;3.10;;;2.30;;
21593;SDS011;10959;51.328;7.322;2024-02-14T00:34:18;5.57;;;2.43;;
21593;SDS011;10959;51.328;7.322;2024-02-14T00:36:46;4.13;;;2.80;;
21593;SDS011;10959;51.328;7.322;2024-02-14T00:39:14;3.83;;;2.37;;
21593;SDS011;10959;51.328;7.322;2024-02-14T00:41:40;4.13;;;2.20;;
21593;SDS011;10959;51.328;7.322;2024-02-14T00:44:07;4.67;;;2.90;;
21593;SDS011;10959;51.328;7.322;2024-02-14T00:46:33;3.23;;;2.50;;
21593;SDS011;10959;51.328;7.322;2024-02-14T00:49:00;4.67;;;2.63;;
21593;SDS011;10959;51.328;7.322;2024-02-14T00:51:26;4.63;;;2.20;;
21593;SDS011;10959;51.328;7.322;2024-02-14T00:53:53;4.70;;;2.80;;
21593;SDS011;10959;51.328;7.322;2024-02-14T00:56:21;4.10;;;2.80;;
21593;SDS011;10959;51.328;7.322;2024-02-14T00:58:48;6.67;;;3.13;;
21593;SDS011;10959;51.328;7.322;2024-02-14T01:01:30;4.43;;;2.33;;
21593;SDS011;10959;51.328;7.322;2024-02-14T01:03:57;4.00;;;2.40;;
21593;SDS011;10959;51.328;7.322;2024-02-14T01:06:24;4.27;;;2.20;;
21593;SDS011;10959;51.328;7.322;2024-02-14T01:08:51;3.43;;;2.60;;
21593;SDS011;10959;51.328;7.322;2024-02-14T01:11:18;3.27;;;2.47;;
21593;SDS011;10959;51.328;7.322;2024-02-14T01:13:46;5.77;;;2.70;;
21593;SDS011;10959;51.328;7.322;2024-02-14T01:16:12;3.87;;;2.33;;
21593;SDS011;10959;51.328;7.322;2024-02-14T01:18:39;5.13;;;2.40;;
21593;SDS011;10959;51.328;7.322;2024-02-14T01:21:06;4.50;;;2.53;;
21593;SDS011;10959;51.328;7.322;2024-02-14T01:23:32;4.40;;;2.50;;
21593;SDS011;10959;51.328;7.322;2024-02-14T01:25:59;2.47;;;2.10;;
21593;SDS011;10959;51.328;7.322;2024-02-14T01:28:25;3.10;;;2.70;;
21593;SDS011;10959;51.328;7.322;2024-02-14T01:30:53;3.63;;;2.20;;
21593;SDS011;10959;51.328;7.322;2024-02-14T01:33:22;3.77;;;2.20;;
21593;SDS011;10959;51.328;7.322;2024-02-14T01:35:48;5.43;;;2.37;;
21593;SDS011;10959;51.328;7.322;2024-02-14T01:38:15;3.87;;;2.40;;
21593;SDS011;10959;51.328;7.322;2024-02-14T01:40:42;4.67;;;2.53;;
21593;SDS011;10959;51.328;7.322;2024-02-14T01:43:09;3.73;;;2.50;;
21593;SDS011;10959;51.328;7.322;2024-02-14T01:45:37;2.73;;;2.30;;
21593;SDS011;10959;51.328;7.322;2024-02-14T01:48:05;2.30;;;2.07;;
21593;SDS011;10959;51.328;7.322;2024-02-14T01:50:33;3.80;;;2.40;;
21593;SDS011;10959;51.328;7.322;2024-02-14T01:53:00;3.33;;;2.20;;
21593;SDS011;10959;51.328;7.322;2024-02-14T01:55:27;4.93;;;2.63;;
21593;SDS011;10959;51.328;7.322;2024-02-14T01:57:54;2.73;;;2.20;;
21593;SDS011;10959;51.328;7.322;2024-02-14T02:00:21;4.80;;;2.80;;
21593;SDS011;10959;51.328;7.322;2024-02-14T02:02:48;3.40;;;2.53;;
21593;SDS011;10959;51.328;7.322;2024-02-14T02:05:16;4.30;;;2.30;;
21593;SDS011;10959;51.328;7.322;2024-02-14T02:07:43;3.33;;;2.10;;
21593;SDS011;10959;51.328;7.322;2024-02-14T02:10:13;5.83;;;2.33;;
21593;SDS011;10959;51.328;7.322;2024-02-14T02:12:40;2.60;;;2.10;;
21593;SDS011;10959;51.328;7.322;2024-02-14T02:15:07;3.13;;;1.90;;
21593;SDS011;10959;51.328;7.322;2024-02-14T02:17:36;4.73;;;2.47;;
21593;SDS011;10959;51.328;7.322;2024-02-14T02:20:02;3.00;;;2.37;;
21593;SDS011;10959;51.328;7.322;2024-02-14T02:22:31;2.60;;;1.87;;
21593;SDS011;10959;51.328;7.322;2024-02-14T02:25:01;3.23;;;1.80;;
21593;SDS011;10959;51.328;7.322;2024-02-14T02:27:28;2.40;;;2.10;;
21593;SDS011;10959;51.328;7.322;2024-02-14T02:29:55;2.80;;;1.97;;
21593;SDS011;10959;51.328;7.322;2024-02-14T02:32:21;2.27;;;1.97;;
21593;SDS011;10959;51.328;7.322;2024-02-14T02:34:48;2.53;;;1.70;;
21593;SDS011;10959;51.328;7.322;2024-02-14T02:37:14;2.97;;;2.17;;
21593;SDS011;10959;51.328;7.322;2024-02-14T02:39:41;3.37;;;2.10;;
21593;SDS011;10959;51.328;7.322;2024-02-14T02:42:09;3.53;;;2.07;;
21593;SDS011;10959;51.328;7.322;2024-02-14T02:44:37;3.10;;;2.20;;
21593;SDS011;10959;51.328;7.322;2024-02-14T02:47:04;3.30;;;2.10;;
21593;SDS011;10959;51.328;7.322;2024-02-14T02:49:31;3.37;;;2.20;;
21593;SDS011;10959;51.328;7.322;2024-02-14T02:51:58;1.97;;;1.77;;
21593;SDS011;10959;51.328;7.322;2024-02-14T02:54:24;2.37;;;1.87;;
21593;SDS011;10959;51.328;7.322;2024-02-14T02:56:51;3.00;;;1.70;;
21593;SDS011;10959;51.328;7.322;2024-02-14T02:59:18;2.57;;;1.60;;
21593;SDS011;10959;51.328;7.322;2024-02-14T03:04:39;3.57;;;2.07;;
21593;SDS011;10959;51.328;7.322;2024-02-14T03:07:07;2.17;;;1.67;;
21593;SDS011;10959;51.328;7.322;2024-02-14T03:09:33;3.27;;;2.00;;
21593;SDS011;10959;51.328;7.322;2024-02-14T03:12:00;2.30;;;1.80;;
21593;SDS011;10959;51.328;7.322;2024-02-14T03:14:29;1.93;;;1.57;;
21593;SDS011;10959;51.328;7.322;2024-02-14T03:16:57;2.70;;;1.70;;
21593;SDS011;10959;51.328;7.322;2024-02-14T03:19:24;2.43;;;1.63;;
21593;SDS011;10959;51.328;7.322;2024-02-14T03:21:51;1.37;;;1.20;;
21593;SDS011;10959;51.328;7.322;2024-02-14T03:24:18;2.27;;;1.40;;
21593;SDS011;10959;51.328;7.322;2024-02-14T03:26:45;2.40;;;1.67;;
21593;SDS011;10959;51.328;7.322;2024-02-14T03:29:12;2.37;;;1.90;;
21593;SDS011;10959;51.328;7.322;2024-02-14T03:31:40;1.90;;;1.57;;
21593;SDS011;10959;51.328;7.322;2024-02-14T03:34:08;3.43;;;1.80;;
21593;SDS011;10959;51.328;7.322;2024-02-14T03:36:36;4.07;;;1.80;;
21593;SDS011;10959;51.328;7.322;2024-02-14T03:39:03;1.47;;;1.27;;
21593;SDS011;10959;51.328;7.322;2024-02-14T03:41:30;2.43;;;1.77;;
21593;SDS011;10959;51.328;7.322;2024-02-14T03:43:57;3.60;;;1.70;;
21593;SDS011;10959;51.328;7.322;2024-02-14T03:46:25;2.43;;;1.47;;
21593;SDS011;10959;51.328;7.322;2024-02-14T03:48:54;2.67;;;1.67;;
21593;SDS011;10959;51.328;7.322;2024-02-14T03:51:22;2.23;;;1.67;;
21593;SDS011;10959;51.328;7.322;2024-02-14T03:53:49;2.83;;;1.77;;
21593;SDS011;10959;51.328;7.322;2024-02-14T03:56:16;3.37;;;1.67;;
21593;SDS011;10959;51.328;7.322;2024-02-14T03:58:42;1.63;;;1.30;;
21593;SDS011;10959;51.328;7.322;2024-02-14T04:01:09;2.27;;;1.50;;
21593;SDS011;10959;51.328;7.322;2024-02-14T04:03:36;3.83;;;1.77;;
21593;SDS011;10959;51.328;7.322;2024-02-14T04:06:04;2.03;;;1.70;;
21593;SDS011;10959;51.328;7.322;2024-02-14T04:08:31;3.23;;;1.90;;
21593;SDS011;10959;51.328;7.322;2024-02-14T04:10:58;3.00;;;1.83;;
21593;SDS011;10959;51.328;7.322;2024-02-14T04:13:24;2.33;;;1.60;;
21593;SDS011;10959;51.328;7.322;2024-02-14T04:15:51;2.57;;;1.73;;
21593;SDS011;10959;51.328;7.322;2024-02-14T04:18:18;1.67;;;1.30;;
21593;SDS011;10959;51.328;7.322;2024-02-14T04:20:44;2.40;;;1.73;;
21593;SDS011;10959;51.328;7.322;2024-02-14T04:23:12;1.87;;;1.40;;
21593;SDS011;10959;51.328;7.322;2024-02-14T04:25:39;2.17;;;1.73;;
21593;SDS011;10959;51.328;7.322;2024-02-14T04:28:05;1.87;;;1.40;;
21593;SDS011;10959;51.328;7.322;2024-02-14T04:30:32;1.60;;;1.50;;
21593;SDS011;10959;51.328;7.322;2024-02-14T04:33:00;2.50;;;1.53;;
21593;SDS011;10959;51.328;7.322;2024-02-14T04:35:27;2.57;;;1.80;;
21593;SDS011;10959;51.328;7.322;2024-02-14T04:37:54;1.47;;;1.37;;
21593;SDS011;10959;51.328;7.322;2024-02-14T04:40:22;1.53;;;1.43;;
21593;SDS011;10959;51.328;7.322;2024-02-14T04:42:48;1.97;;;1.77;;
21593;SDS011;10959;51.328;7.322;2024-02-14T04:45:15;3.00;;;1.70;;
21593;SDS011;10959;51.328;7.322;2024-02-14T04:47:41;4.30;;;1.70;;
21593;SDS011;10959;51.328;7.322;2024-02-14T04:50:09;1.80;;;1.70;;
21593;SDS011;10959;51.328;7.322;2024-02-14T04:52:36;2.67;;;1.80;;
21593;SDS011;10959;51.328;7.322;2024-02-14T04:55:03;2.83;;;1.80;;
21593;SDS011;10959;51.328;7.322;2024-02-14T04:57:31;2.97;;;1.60;;
21593;SDS011;10959;51.328;7.322;2024-02-14T05:00:00;1.70;;;1.60;;
21593;SDS011;10959;51.328;7.322;2024-02-14T05:02:29;2.43;;;2.23;;
21593;SDS011;10959;51.328;7.322;2024-02-14T05:04:56;3.20;;;1.70;;
21593;SDS011;10959;51.328;7.322;2024-02-14T05:07:23;2.47;;;1.73;;
21593;SDS011;10959;51.328;7.322;2024-02-14T05:09:49;2.20;;;2.00;;
21593;SDS011;10959;51.328;7.322;2024-02-14T05:12:17;2.03;;;1.83;;
21593;SDS011;10959;51.328;7.322;2024-02-14T05:14:46;2.60;;;2.30;;
21593;SDS011;10959;51.328;7.322;2024-02-14T05:17:12;1.90;;;1.80;;
21593;SDS011;10959;51.328;7.322;2024-02-14T05:19:41;3.10;;;1.73;;
21593;SDS011;10959;51.328;7.322;2024-02-14T05:22:07;1.60;;;1.50;;
21593;SDS011;10959;51.328;7.322;2024-02-14T05:24:34;2.83;;;2.27;;
21593;SDS011;10959;51.328;7.322;2024-02-14T05:27:02;2.30;;;2.10;;
21593;SDS011;10959;51.328;7.322;2024-02-14T05:29:30;2.77;;;2.10;;
21593;SDS011;10959;51.328;7.322;2024-02-14T05:31:57;2.40;;;2.20;;
21593;SDS011;10959;51.328;7.322;2024-02-14T05:34:24;2.00;;;1.90;;
21593;SDS011;10959;51.328;7.322;2024-02-14T05:36:51;2.77;;;1.80;;
21593;SDS011;10959;51.328;7.322;2024-02-14T05:39:17;2.30;;;2.10;;
21593;SDS011;10959;51.328;7.322;2024-02-14T05:41:44;2.50;;;2.30;;
21593;SDS011;10959;51.328;7.322;2024-02-14T05:44:10;2.30;;;2.10;;
21593;SDS011;10959;51.328;7.322;2024-02-14T05:46:37;2.20;;;1.80;;
21593;SDS011;10959;51.328;7.322;2024-02-14T05:49:05;2.40;;;2.20;;
21593;SDS011;10959;51.328;7.322;2024-02-14T05:51:31;2.40;;;2.20;;
21593;SDS011;10959;51.328;7.322;2024-02-14T05:53:58;2.53;;;2.07;;
21593;SDS011;10959;51.328;7.322;2024-02-14T05:56:25;4.50;;;2.93;;
21593;SDS011;10959;51.328;7.322;2024-02-14T05:58:51;5.87;;;2.40;;
21593;SDS011;10959;51.328;7.322;2024-02-14T06:01:18;2.80;;;2.60;;
21593;SDS011;10959;51.328;7.322;2024-02-14T06:03:44;2.50;;;2.30;;
21593;SDS011;10959;51.328;7.322;2024-02-14T06:06:12;3.60;;;2.50;;
21593;SDS011;10959;51.328;7.322;2024-02-14T06:08:39;3.50;;;2.40;;
21593;SDS011;10959;51.328;7.322;2024-02-14T06:11:05;3.47;;;2.60;;
21593;SDS011;10959;51.328;7.322;2024-02-14T06:13:32;2.83;;;2.60;;
21593;SDS011;10959;51.328;7.322;2024-02-14T06:16:00;2.73;;;2.47;;
21593;SDS011;10959;51.328;7.322;2024-02-14T06:18:27;3.10;;;2.70;;
21593;SDS011;10959;51.328;7.322;2024-02-14T06:20:53;2.53;;;2.33;;
21593;SDS011;10959;51.328;7.322;2024-02-14T06:23:21;3.20;;;2.90;;
21593;SDS011;10959;51.328;7.322;2024-02-14T06:25:48;3.13;;;2.87;;
21593;SDS011;10959;51.328;7.322;2024-02-14T06:28:14;2.97;;;2.70;;
21593;SDS011;10959;51.328;7.322;2024-02-14T06:30:41;2.67;;;2.47;;
21593;SDS011;10959;51.328;7.322;2024-02-14T06:33:07;3.60;;;3.30;;
21593;SDS011;10959;51.328;7.322;2024-02-14T06:35:34;3.30;;;3.03;;
21593;SDS011;10959;51.328;7.322;2024-02-14T06:38:00;3.37;;;3.07;;
21593;SDS011;10959;51.328;7.322;2024-02-14T06:40:28;4.30;;;3.90;;
21593;SDS011;10959;51.328;7.322;2024-02-14T06:42:55;3.83;;;3.53;;
21593;SDS011;10959;51.328;7.322;2024-02-14T06:45:22;4.40;;;4.10;;
21593;SDS011;10959;51.328;7.322;2024-02-14T06:47:48;4.80;;;4.40;;
21593;SDS011;10959;51.328;7.322;2024-02-14T06:50:15;5.80;;;5.30;;
21593;SDS011;10959;51.328;7.322;2024-02-14T06:52:41;5.67;;;4.73;;
21593;SDS011;10959;51.328;7.322;2024-02-14T06:55:08;5.60;;;5.10;;
21593;SDS011;10959;51.328;7.322;2024-02-14T06:57:36;6.27;;;5.63;;
21593;SDS011;10959;51.328;7.322;2024-02-14T07:00:02;5.67;;;5.17;;
21593;SDS011;10959;51.328;7.322;2024-02-14T07:02:31;5.57;;;5.17;;
21593;SDS011;10959;51.328;7.322;2024-02-14T07:04:58;6.60;;;6.10;;
21593;SDS011;10959;51.328;7.322;2024-02-14T07:07:24;6.93;;;6.33;;
21593;SDS011;10959;51.328;7.322;2024-02-14T07:09:52;7.67;;;7.07;;
21593;SDS011;10959;51.328;7.322;2024-02-14T07:12:19;7.43;;;6.73;;
21593;SDS011;10959;51.328;7.322;2024-02-14T07:14:47;7.93;;;7.13;;
21593;SDS011;10959;51.328;7.322;2024-02-14T07:17:14;7.67;;;7.07;;
21593;SDS011;10959;51.328;7.322;2024-02-14T07:19:40;7.33;;;6.73;;
21593;SDS011;10959;51.328;7.322;2024-02-14T07:22:08;8.00;;;7.20;;
21593;SDS011;10959;51.328;7.322;2024-02-14T07:24:35;7.10;;;6.60;;
21593;SDS011;10959;51.328;7.322;2024-02-14T07:27:02;7.70;;;6.83;;
21593;SDS011;10959;51.328;7.322;2024-02-14T07:29:28;7.27;;;6.67;;
21593;SDS011;10959;51.328;7.322;2024-02-14T07:31:56;7.67;;;6.97;;
21593;SDS011;10959;51.328;7.322;2024-02-14T07:34:24;8.50;;;7.83;;
21593;SDS011;10959;51.328;7.322;2024-02-14T07:36:50;7.47;;;6.63;;
21593;SDS011;10959;51.328;7.322;2024-02-14T07:39:17;7.53;;;6.83;;
21593;SDS011;10959;51.328;7.322;2024-02-14T07:41:43;7.50;;;6.83;;
21593;SDS011;10959;51.328;7.322;2024-02-14T07:44:11;5.43;;;4.87;;
21593;SDS011;10959;51.328;7.322;2024-02-14T07:46:38;5.90;;;5.40;;
21593;SDS011;10959;51.328;7.322;2024-02-14T07:49:06;6.00;;;5.60;;
21593;SDS011;10959;51.328;7.322;2024-02-14T07:51:34;6.20;;;5.60;;
21593;SDS011;10959;51.328;7.322;2024-02-14T07:54:02;6.27;;;5.77;;
21593;SDS011;10959;51.328;7.322;2024-02-14T07:56:29;6.70;;;6.20;;
21593;SDS011;10959;51.328;7.322;2024-02-14T07:58:56;6.77;;;6.27;;
21593;SDS011;10959;51.328;7.322;2024-02-14T08:01:22;5.67;;;5.17;;
21593;SDS011;10959;51.328;7.322;2024-02-14T08:03:49;5.63;;;5.13;;
21593;SDS011;10959;51.328;7.322;2024-02-14T08:06:17;6.50;;;6.00;;
21593;SDS011;10959;51.328;7.322;2024-02-14T08:08:43;5.57;;;5.07;;
21593;SDS011;10959;51.328;7.322;2024-02-14T08:11:10;5.63;;;5.23;;
21593;SDS011;10959;51.328;7.322;2024-02-14T08:13:37;5.10;;;4.70;;
21593;SDS011;10959;51.328;7.322;2024-02-14T08:16:05;4.80;;;4.40;;
21593;SDS011;10959;51.328;7.322;2024-02-14T08:18:32;6.23;;;4.63;;
21593;SDS011;10959;51.328;7.322;2024-02-14T08:20:58;4.67;;;4.27;;
21593;SDS011;10959;51.328;7.322;2024-02-14T08:23:26;4.27;;;3.97;;
21593;SDS011;10959;51.328;7.322;2024-02-14T08:25:53;3.50;;;3.20;;
21593;SDS011;10959;51.328;7.322;2024-02-14T08:28:19;3.30;;;3.10;;
21593;SDS011;10959;51.328;7.322;2024-02-14T08:30:46;3.83;;;3.43;;
21593;SDS011;10959;51.328;7.322;2024-02-14T08:33:13;3.87;;;3.23;;
21593;SDS011;10959;51.328;7.322;2024-02-14T08:35:39;4.00;;;3.53;;
21593;SDS011;10959;51.328;7.322;2024-02-14T08:38:06;3.63;;;3.23;;
21593;SDS011;10959;51.328;7.322;2024-02-14T08:40:34;4.23;;;3.83;;
21593;SDS011;10959;51.328;7.322;2024-02-14T08:43:01;4.07;;;3.77;;
21593;SDS011;10959;51.328;7.322;2024-02-14T08:45:29;3.90;;;3.60;;
21593;SDS011;10959;51.328;7.322;2024-02-14T08:47:56;4.20;;;3.90;;
21593;SDS011;10959;51.328;7.322;2024-02-14T08:50:23;4.50;;;4.10;;
21593;SDS011;10959;51.328;7.322;2024-02-14T08:52:49;4.43;;;3.90;;
21593;SDS011;10959;51.328;7.322;2024-02-14T08:55:16;4.23;;;3.90;;
21593;SDS011;10959;51.328;7.322;2024-02-14T08:57:45;6.40;;;3.87;;
21593;SDS011;10959;51.328;7.322;2024-02-14T09:00:12;4.63;;;4.10;;
21593;SDS011;10959;51.328;7.322;2024-02-14T09:02:44;7.00;;;5.00;;
21593;SDS011;10959;51.328;7.322;2024-02-14T09:05:11;5.03;;;3.57;;
21593;SDS011;10959;51.328;7.322;2024-02-14T09:07:38;3.47;;;3.17;;
21593;SDS011;10959;51.328;7.322;2024-02-14T09:10:06;4.17;;;3.77;;
21593;SDS011;10959;51.328;7.322;2024-02-14T09:12:35;5.40;;;4.63;;
21593;SDS011;10959;51.328;7.322;2024-02-14T09:15:04;3.80;;;3.50;;
21593;SDS011;10959;51.328;7.322;2024-02-14T09:17:31;4.37;;;3.97;;
21593;SDS011;10959;51.328;7.322;2024-02-14T09:19:58;4.30;;;3.80;;
21593;SDS011;10959;51.328;7.322;2024-02-14T09:22:24;4.57;;;3.30;;
21593;SDS011;10959;51.328;7.322;2024-02-14T09:24:51;4.20;;;3.67;;
21593;SDS011;10959;51.328;7.322;2024-02-14T09:27:17;3.57;;;2.97;;
21593;SDS011;10959;51.328;7.322;2024-02-14T09:29:44;3.40;;;3.00;;
21593;SDS011;10959;51.328;7.322;2024-02-14T09:32:12;3.10;;;2.77;;
21593;SDS011;10959;51.328;7.322;2024-02-14T09:34:38;3.37;;;2.70;;
21593;SDS011;10959;51.328;7.322;2024-02-14T09:37:05;3.47;;;3.17;;
21593;SDS011;10959;51.328;7.322;2024-02-14T09:39:31;3.13;;;2.80;;
21593;SDS011;10959;51.328;7.322;2024-02-14T09:42:01;3.83;;;2.60;;
21593;SDS011;10959;51.328;7.322;2024-02-14T09:44:34;3.80;;;2.80;;
21593;SDS011;10959;51.328;7.322;2024-02-14T09:47:02;3.20;;;2.33;;
21593;SDS011;10959;51.328;7.322;2024-02-14T09:49:32;2.57;;;2.37;;
21593;SDS011;10959;51.328;7.322;2024-02-14T09:52:01;2.63;;;2.43;;
21593;SDS011;10959;51.328;7.322;2024-02-14T09:54:28;2.40;;;2.20;;
21593;SDS011;10959;51.328;7.322;2024-02-14T09:56:56;2.40;;;2.20;;
21593;SDS011;10959;51.328;7.322;2024-02-14T09:59:24;2.20;;;2.00;;
21593;SDS011;10959;51.328;7.322;2024-02-14T10:01:50;2.63;;;2.20;;
21593;SDS011;10959;51.328;7.322;2024-02-14T10:04:17;2.53;;;2.33;;
21593;SDS011;10959;51.328;7.322;2024-02-14T10:06:45;2.20;;;2.00;;
21593;SDS011;10959;51.328;7.322;2024-02-14T10:09:17;3.30;;;2.30;;
21593;SDS011;10959;51.328;7.322;2024-02-14T10:11:45;2.50;;;2.23;;
21593;SDS011;10959;51.328;7.322;2024-02-14T10:14:11;2.37;;;2.17;;
21593;SDS011;10959;51.328;7.322;2024-02-14T10:16:38;3.03;;;2.53;;
21593;SDS011;10959;51.328;7.322;2024-02-14T10:19:13;2.33;;;2.13;;
21593;SDS011;10959;51.328;7.322;2024-02-14T10:21:40;3.73;;;2.60;;
21593;SDS011;10959;51.328;7.322;2024-02-14T10:24:08;2.63;;;2.10;;
21593;SDS011;10959;51.328;7.322;2024-02-14T10:26:35;2.50;;;2.30;;
21593;SDS011;10959;51.328;7.322;2024-02-14T10:29:02;2.60;;;2.40;;
21593;SDS011;10959;51.328;7.322;2024-02-14T10:31:29;3.00;;;2.10;;
21593;SDS011;10959;51.328;7.322;2024-02-14T10:33:55;3.27;;;2.20;;
21593;SDS011;10959;51.328;7.322;2024-02-14T10:36:22;4.57;;;3.33;;
21593;SDS011;10959;51.328;7.322;2024-02-14T10:38:49;3.50;;;2.60;;
21593;SDS011;10959;51.328;7.322;2024-02-14T10:41:18;3.83;;;2.27;;
21593;SDS011;10959;51.328;7.322;2024-02-14T10:43:44;3.37;;;2.80;;
21593;SDS011;10959;51.328;7.322;2024-02-14T10:46:12;3.57;;;2.20;;
21593;SDS011;10959;51.328;7.322;2024-02-14T10:48:45;2.73;;;2.30;;
21593;SDS011;10959;51.328;7.322;2024-02-14T10:51:12;2.83;;;1.97;;
21593;SDS011;10959;51.328;7.322;2024-02-14T10:53:41;3.07;;;2.23;;
21593;SDS011;10959;51.328;7.322;2024-02-14T10:56:11;2.90;;;1.83;;
21593;SDS011;10959;51.328;7.322;2024-02-14T10:58:44;2.00;;;1.80;;
21593;SDS011;10959;51.328;7.322;2024-02-14T11:01:13;2.73;;;2.03;;
21593;SDS011;10959;51.328;7.322;2024-02-14T11:03:41;2.93;;;1.97;;
21593;SDS011;10959;51.328;7.322;2024-02-14T11:06:14;2.93;;;2.30;;
21593;SDS011;10959;51.328;7.322;2024-02-14T11:08:42;2.27;;;2.07;;
21593;SDS011;10959;51.328;7.322;2024-02-14T11:11:08;1.73;;;1.53;;
21593;SDS011;10959;51.328;7.322;2024-02-14T11:13:38;3.77;;;2.17;;
21593;SDS011;10959;51.328;7.322;2024-02-14T11:16:09;2.37;;;1.70;;
21593;SDS011;10959;51.328;7.322;2024-02-14T11:18:36;2.87;;;2.13;;
21593;SDS011;10959;51.328;7.322;2024-02-14T11:21:04;2.57;;;1.80;;
21593;SDS011;10959;51.328;7.322;2024-02-14T11:23:31;1.63;;;1.53;;
21593;SDS011;10959;51.328;7.322;2024-02-14T11:26:00;2.70;;;1.73;;
21593;SDS011;10959;51.328;7.322;2024-02-14T11:28:29;1.77;;;1.57;;
21593;SDS011;10959;51.328;7.322;2024-02-14T11:30:58;2.73;;;1.77;;
21593;SDS011;10959;51.328;7.322;2024-02-14T11:33:29;3.20;;;1.80;;
21593;SDS011;10959;51.328;7.322;2024-02-14T11:35:56;2.83;;;1.70;;
21593;SDS011;10959;51.328;7.322;2024-02-14T11:38:24;4.03;;;1.97;;
21593;SDS011;10959;51.328;7.322;2024-02-14T11:40:53;3.30;;;1.60;;
21593;SDS011;10959;51.328;7.322;2024-02-14T11:43:21;2.47;;;2.27;;
21593;SDS011;10959;51.328;7.322;2024-02-14T11:45:49;1.93;;;1.73;;
21593;SDS011;10959;51.328;7.322;2024-02-14T11:48:17;2.77;;;2.00;;
21593;SDS011;10959;51.328;7.322;2024-02-14T11:50:45;2.73;;;2.10;;
21593;SDS011;10959;51.328;7.322;2024-02-14T11:53:13;2.97;;;1.67;;
21593;SDS011;10959;51.328;7.322;2024-02-14T11:55:42;3.00;;;2.10;;
21593;SDS011;10959;51.328;7.322;2024-02-14T11:58:09;2.80;;;1.73;;
21593;SDS011;10959;51.328;7.322;2024-02-14T12:00:37;2.50;;;2.20;;
21593;SDS011;10959;51.328;7.322;2024-02-14T12:03:05;4.17;;;2.37;;
21593;SDS011;10959;51.328;7.322;2024-02-14T12:05:33;3.80;;;2.60;;
21593;SDS011;10959;51.328;7.322;2024-02-14T12:08:02;2.53;;;2.30;;
21593;SDS011;10959;51.328;7.322;2024-02-14T12:10:31;5.47;;;3.27;;
21593;SDS011;10959;51.328;7.322;2024-02-14T12:12:57;4.13;;;2.50;;
21593;SDS011;10959;51.328;7.322;2024-02-14T12:15:25;3.57;;;2.93;;
21593;SDS011;10959;51.328;7.322;2024-02-14T12:17:52;5.33;;;3.07;;
21593;SDS011;10959;51.328;7.322;2024-02-14T12:20:21;5.37;;;3.70;;
21593;SDS011;10959;51.328;7.322;2024-02-14T12:22:49;5.27;;;2.70;;
21593;SDS011;10959;51.328;7.322;2024-02-14T12:25:17;3.03;;;2.73;;
21593;SDS011;10959;51.328;7.322;2024-02-14T12:27:49;3.33;;;2.80;;
21593;SDS011;10959;51.328;7.322;2024-02-14T12:30:17;6.07;;;2.23;;
21593;SDS011;10959;51.328;7.322;2024-02-14T12:32:43;4.23;;;2.17;;
21593;SDS011;10959;51.328;7.322;2024-02-14T12:35:10;4.50;;;2.40;;
21593;SDS011;10959;51.328;7.322;2024-02-14T12:37:36;4.33;;;2.40;;
21593;SDS011;10959;51.328;7.322;2024-02-14T12:40:04;4.40;;;2.33;;
21593;SDS011;10959;51.328;7.322;2024-02-14T12:42:33;3.97;;;2.60;;
21593;SDS011;10959;51.328;7.322;2024-02-14T12:45:00;3.03;;;2.23;;
21593;SDS011;10959;51.328;7.322;2024-02-14T12:47:27;6.17;;;2.37;;
21593;SDS011;10959;51.328;7.322;2024-02-14T12:49:57;4.00;;;2.87;;
21593;SDS011;10959;51.328;7.322;2024-02-14T12:52:24;4.20;;;3.20;;
21593;SDS011;10959;51.328;7.322;2024-02-14T12:54:51;3.40;;;2.83;;
21593;SDS011;10959;51.328;7.322;2024-02-14T12:57:17;4.30;;;2.50;;
21593;SDS011;10959;51.328;7.322;2024-02-14T12:59:47;3.33;;;2.23;;
21593;SDS011;10959;51.328;7.322;2024-02-14T13:02:14;2.33;;;2.10;;
21593;SDS011;10959;51.328;7.322;2024-02-14T13:04:42;2.67;;;2.20;;
21593;SDS011;10959;51.328;7.322;2024-02-14T13:07:08;2.30;;;1.77;;
21593;SDS011;10959;51.328;7.322;2024-02-14T13:09:35;2.83;;;1.83;;
21593;SDS011;10959;51.328;7.322;2024-02-14T13:12:02;2.30;;;1.43;;
21593;SDS011;10959;51.328;7.322;2024-02-14T13:14:30;3.73;;;1.80;;
21593;SDS011;10959;51.328;7.322;2024-02-14T13:16:59;1.63;;;1.50;;
21593;SDS011;10959;51.328;7.322;2024-02-14T13:19:25;2.70;;;1.23;;
21593;SDS011;10959;51.328;7.322;2024-02-14T13:21:52;2.00;;;1.43;;
21593;SDS011;10959;51.328;7.322;2024-02-14T13:24:19;1.30;;;1.17;;
21593;SDS011;10959;51.328;7.322;2024-02-14T13:26:46;1.83;;;1.10;;
21593;SDS011;10959;51.328;7.322;2024-02-14T13:29:13;1.27;;;0.90;;
21593;SDS011;10959;51.328;7.322;2024-02-14T13:31:40;2.50;;;1.20;;
21593;SDS011;10959;51.328;7.322;2024-02-14T13:34:08;1.97;;;1.10;;
21593;SDS011;10959;51.328;7.322;2024-02-14T13:36:36;2.10;;;1.00;;
21593;SDS011;10959;51.328;7.322;2024-02-14T13:39:04;2.33;;;1.33;;
21593;SDS011;10959;51.328;7.322;2024-02-14T13:41:30;0.93;;;0.83;;
21593;SDS011;10959;51.328;7.322;2024-02-14T13:43:57;1.70;;;1.20;;
21593;SDS011;10959;51.328;7.322;2024-02-14T13:46:23;1.73;;;0.90;;
21593;SDS011;10959;51.328;7.322;2024-02-14T13:48:51;1.50;;;1.20;;
21593;SDS011;10959;51.328;7.322;2024-02-14T13:51:19;1.77;;;1.20;;
21593;SDS011;10959;51.328;7.322;2024-02-14T13:53:46;1.50;;;1.13;;
21593;SDS011;10959;51.328;7.322;2024-02-14T13:56:14;1.20;;;1.10;;
21593;SDS011;10959;51.328;7.322;2024-02-14T13:58:40;1.40;;;1.30;;
21593;SDS011;10959;51.328;7.322;2024-02-14T14:01:07;1.67;;;1.40;;
21593;SDS011;10959;51.328;7.322;2024-02-14T14:03:33;1.37;;;1.20;;
21593;SDS011;10959;51.328;7.322;2024-02-14T14:06:02;1.60;;;1.13;;
21593;SDS011;10959;51.328;7.322;2024-02-14T14:08:32;1.50;;;1.07;;
21593;SDS011;10959;51.328;7.322;2024-02-14T14:11:00;1.47;;;1.37;;
21593;SDS011;10959;51.328;7.322;2024-02-14T14:13:28;1.50;;;1.37;;
21593;SDS011;10959;51.328;7.322;2024-02-14T14:15:56;1.20;;;1.00;;
21593;SDS011;10959;51.328;7.322;2024-02-14T14:18:22;1.00;;;0.90;;
21593;SDS011;10959;51.328;7.322;2024-02-14T14:20:49;1.63;;;1.20;;
21593;SDS011;10959;51.328;7.322;2024-02-14T14:23:16;1.13;;;1.00;;
21593;SDS011;10959;51.328;7.322;2024-02-14T14:25:43;2.03;;;1.10;;
21593;SDS011;10959;51.328;7.322;2024-02-14T14:28:10;1.10;;;1.00;;
21593;SDS011;10959;51.328;7.322;2024-02-14T14:30:36;1.30;;;1.17;;
21593;SDS011;10959;51.328;7.322;2024-02-14T14:33:03;1.30;;;1.13;;
21593;SDS011;10959;51.328;7.322;2024-02-14T14:35:30;1.50;;;1.37;;
21593;SDS011;10959;51.328;7.322;2024-02-14T14:37:58;1.37;;;1.27;;
21593;SDS011;10959;51.328;7.322;2024-02-14T14:40:24;2.00;;;1.13;;
21593;SDS011;10959;51.328;7.322;2024-02-14T14:42:53;1.20;;;1.00;;
21593;SDS011;10959;51.328;7.322;2024-02-14T14:45:19;1.87;;;1.13;;
21593;SDS011;10959;51.328;7.322;2024-02-14T14:47:46;0.87;;;0.87;;
21593;SDS011;10959;51.328;7.322;2024-02-14T14:50:13;2.30;;;1.17;;
21593;SDS011;10959;51.328;7.322;2024-02-14T14:52:41;1.13;;;1.03;;